ヘネラル・マリアノ・エソコベド国際空港の過去48時間の天気

ヘネラル・マリアノ・エソコベド国際空港 (Monterrey / Gen Maria)

現在時刻: 9/22 11:24 CDT (9/22 16:24 UTC) 以下の時間は現地時間です。

過去48時間のMETAR気象情報
時間 風向 風速(m/s) 視程 気温(℃) 湿度(%) 気圧(hPa) 天気現象
22 10:46 北西 5 10km以上 26 54 1017
22 09:43 西 5 6450m 24 57 1017
22 08:41 西北西 3 10km以上 21 69 1017
22 07:40 西 3 10km以上 16 82 1017
22 06:41 西 4 10km以上 18 77 1016
22 05:41 西北西 2 10km以上 18 77 1016
22 04:41 西 3 10km以上 17 83 1015
22 03:41 北北西 3 10km以上 17 83 1015
22 02:41 2 10km以上 19 73 1016
22 01:41 西 4 10km以上 20 68 1016
22 00:41 北北西 3 10km以上 21 64 1016
21 23:41 西北西 3 10km以上 21 64 1016
21 22:41 西北西 3 10km以上 22 60 1016
21 21:41 西 3 10km以上 22 65 1016
21 20:41 北西 3 10km以上 23 57 1015
21 19:41 北北西 3 8050m 26 48 1014
21 18:40 3 8050m 28 45 1014
21 17:40 北北西 4 8050m 30 40 1013
21 16:40 北北西 4 8050m 30 35 1014
21 15:47 4 8050m 30 35 1014
21 14:41 北西 5 8050m 30 35 1015
MMMY 221546Z 32009KT 6SM SKC 26/16 A3004 RMK HZY
MMMY 221443Z 28010KT 4SM SKC 24/15 A3004 RMK SLP/// 5//// 9// HZY
MMMY 221341Z 30006KT 8SM BKN200 21/15 A3003 RMK 8/001 HZY
MMMY 221240Z 26006KT 8SM BKN200 16/13 A3002 RMK 8/001 HZY
MMMY 221141Z 28007KT 10SM SKC 18/14 A2999 RMK SLP/// 5//// 9//
MMMY 221041Z 30004KT 10SM SKC 18/14 A2999
MMMY 220941Z 28005KT 10SM SKC 17/14 A2998
MMMY 220841Z 33006KT 10SM SKC 17/14 A2998 RMK SLP/// 5//// 9//
MMMY 220741Z 01003KT 10SM SKC 19/14 A2999
MMMY 220641Z 28007KT 10SM SKC 20/14 A3000
MMMY 220541Z 33005KT 10SM SKC 21/14 A3001 RMK SLP/// 5//// 9//
MMMY 220441Z 29006KT 10SM SKC 21/14 A3001
MMMY 220341Z 30005KT 8SM SKC 22/14 A3001
MMMY 220241Z 26005KT 8SM SKC 22/15 A2999 RMK SLP/// 5//// 9//
MMMY 220141Z 32005KT 6SM SKC 23/14 A2996 RMK HZY
MMMY 220041Z RTD 33005KT 5SM SKC 26/14 A2994 RMK SLP/// 5//// 9// HZY RTS
MMMY 212340Z 35006KT 5SM SKC 28/15 A2993 RMK SLP/// 5//// 9// HZY
MMMY 212240Z 34007KT 5SM SKC 30/15 A2992 RMK HZY
MMMY 212140Z 34008KT 5SM SKC 30/13 A2994 RMK HZY
MMMY 212047Z 35007KT 5SM SKC 30/13 A2995 RMK SLP/// 5//// 9// HZY
MMMY 211941Z 32009KT 5SM SKC 30/13 A2998 RMK HZY